LTBU/TEQ METAR and TAF weather

Enter ICAO airport designator
Station Type Date Time Source
LTBU METAR 2020/01/24 09:20 UTC NOAA

LTBU 240920Z VRB01KT CAVOK 08/M03 Q1033


Station Type Date Time Source
LTBU Decoded METAR 2020/01/24 09:20 UTC NOAA

Corlu, Turkey (LTBU) 41-08N 027-55E
Jan 24, 2020 - 04:20 AM EST / 2020.01.24 0920 UTC
Wind: Variable at 1 MPH (1 KT):0
Visibility: greater than 7 mile(s):0
Temperature: 46 F (8 C)
Dew Point: 26 F (-3 C)
Relative Humidity: 45%
Pressure (altimeter): 30.50 in. Hg (1033 hPa)
ob: LTBU 240920Z VRB01KT CAVOK 08/M03 Q1033
cycle: 9

Station Type Date Time Source
LTBU TAF 2020/01/24 06:03 UTC NOAA

TAF LTBU 240440Z 2406/2506 33008KT CAVOK
BECMG 2410/2412 22010KT
BECMG 2500/2502 SCT030

Example: see airport list